sensor_id;sensor_type;location;lat;lon;timestamp;P1;durP1;ratioP1;P2;durP2;ratioP2
12248;SDS011;6187;50.778;6.142;2023-11-21T00:00:08;8.67;;;5.00;;
12248;SDS011;6187;50.778;6.142;2023-11-21T00:02:39;8.20;;;5.13;;
12248;SDS011;6187;50.778;6.142;2023-11-21T00:05:08;9.63;;;5.67;;
12248;SDS011;6187;50.778;6.142;2023-11-21T00:07:38;8.90;;;5.73;;
12248;SDS011;6187;50.778;6.142;2023-11-21T00:10:07;7.40;;;5.43;;
12248;SDS011;6187;50.778;6.142;2023-11-21T00:12:37;7.83;;;5.13;;
12248;SDS011;6187;50.778;6.142;2023-11-21T00:15:08;8.83;;;5.87;;
12248;SDS011;6187;50.778;6.142;2023-11-21T00:17:38;8.93;;;5.63;;
12248;SDS011;6187;50.778;6.142;2023-11-21T00:20:07;9.00;;;6.07;;
12248;SDS011;6187;50.778;6.142;2023-11-21T00:22:40;9.03;;;5.73;;
12248;SDS011;6187;50.778;6.142;2023-11-21T00:25:09;12.27;;;7.07;;
12248;SDS011;6187;50.778;6.142;2023-11-21T00:27:38;11.37;;;6.53;;
12248;SDS011;6187;50.778;6.142;2023-11-21T00:30:07;11.50;;;6.73;;
12248;SDS011;6187;50.778;6.142;2023-11-21T00:32:36;8.80;;;5.90;;
12248;SDS011;6187;50.778;6.142;2023-11-21T00:35:05;9.37;;;6.43;;
12248;SDS011;6187;50.778;6.142;2023-11-21T00:37:33;9.60;;;5.83;;
12248;SDS011;6187;50.778;6.142;2023-11-21T00:40:04;7.43;;;5.07;;
12248;SDS011;6187;50.778;6.142;2023-11-21T00:42:33;10.50;;;6.10;;
12248;SDS011;6187;50.778;6.142;2023-11-21T00:45:02;9.87;;;6.50;;
12248;SDS011;6187;50.778;6.142;2023-11-21T00:47:31;8.90;;;6.00;;
12248;SDS011;6187;50.778;6.142;2023-11-21T00:50:00;10.30;;;6.07;;
12248;SDS011;6187;50.778;6.142;2023-11-21T00:52:28;10.67;;;5.90;;
12248;SDS011;6187;50.778;6.142;2023-11-21T00:54:57;8.53;;;5.67;;
12248;SDS011;6187;50.778;6.142;2023-11-21T00:57:28;11.37;;;6.23;;
12248;SDS011;6187;50.778;6.142;2023-11-21T00:59:56;10.83;;;6.87;;
12248;SDS011;6187;50.778;6.142;2023-11-21T01:02:25;12.33;;;6.77;;
12248;SDS011;6187;50.778;6.142;2023-11-21T01:04:53;11.27;;;6.30;;
12248;SDS011;6187;50.778;6.142;2023-11-21T01:07:21;10.23;;;6.67;;
12248;SDS011;6187;50.778;6.142;2023-11-21T01:09:50;10.97;;;6.67;;
12248;SDS011;6187;50.778;6.142;2023-11-21T01:12:19;11.57;;;6.27;;
12248;SDS011;6187;50.778;6.142;2023-11-21T01:14:49;10.37;;;6.73;;
12248;SDS011;6187;50.778;6.142;2023-11-21T01:17:18;10.13;;;6.60;;
12248;SDS011;6187;50.778;6.142;2023-11-21T01:19:49;14.13;;;7.53;;
12248;SDS011;6187;50.778;6.142;2023-11-21T01:22:17;10.30;;;7.10;;
12248;SDS011;6187;50.778;6.142;2023-11-21T01:24:52;12.77;;;7.43;;
12248;SDS011;6187;50.778;6.142;2023-11-21T01:27:21;9.90;;;7.00;;
12248;SDS011;6187;50.778;6.142;2023-11-21T01:29:50;10.73;;;7.10;;
12248;SDS011;6187;50.778;6.142;2023-11-21T01:32:20;13.67;;;7.40;;
12248;SDS011;6187;50.778;6.142;2023-11-21T01:34:50;13.30;;;7.27;;
12248;SDS011;6187;50.778;6.142;2023-11-21T01:37:18;10.37;;;7.03;;
12248;SDS011;6187;50.778;6.142;2023-11-21T01:39:48;10.43;;;6.77;;
12248;SDS011;6187;50.778;6.142;2023-11-21T01:42:16;11.67;;;7.10;;
12248;SDS011;6187;50.778;6.142;2023-11-21T01:44:45;9.90;;;6.97;;
12248;SDS011;6187;50.778;6.142;2023-11-21T01:47:15;12.63;;;6.67;;
12248;SDS011;6187;50.778;6.142;2023-11-21T01:49:44;12.00;;;7.20;;
12248;SDS011;6187;50.778;6.142;2023-11-21T01:52:13;11.80;;;6.80;;
12248;SDS011;6187;50.778;6.142;2023-11-21T01:54:42;10.57;;;7.27;;
12248;SDS011;6187;50.778;6.142;2023-11-21T01:57:11;11.83;;;6.77;;
12248;SDS011;6187;50.778;6.142;2023-11-21T01:59:39;11.00;;;6.63;;
12248;SDS011;6187;50.778;6.142;2023-11-21T02:02:10;10.50;;;6.57;;
12248;SDS011;6187;50.778;6.142;2023-11-21T02:04:40;10.77;;;6.40;;
12248;SDS011;6187;50.778;6.142;2023-11-21T02:07:09;9.63;;;6.80;;
12248;SDS011;6187;50.778;6.142;2023-11-21T02:09:38;10.60;;;7.23;;
12248;SDS011;6187;50.778;6.142;2023-11-21T02:12:09;9.60;;;6.73;;
12248;SDS011;6187;50.778;6.142;2023-11-21T02:14:37;12.07;;;6.37;;
12248;SDS011;6187;50.778;6.142;2023-11-21T02:17:06;13.23;;;6.83;;
12248;SDS011;6187;50.778;6.142;2023-11-21T02:19:35;11.60;;;7.23;;
12248;SDS011;6187;50.778;6.142;2023-11-21T02:22:04;9.60;;;6.40;;
12248;SDS011;6187;50.778;6.142;2023-11-21T02:24:35;11.07;;;7.00;;
12248;SDS011;6187;50.778;6.142;2023-11-21T02:27:04;9.97;;;6.73;;
12248;SDS011;6187;50.778;6.142;2023-11-21T02:29:33;10.43;;;6.33;;
12248;SDS011;6187;50.778;6.142;2023-11-21T02:32:02;9.33;;;6.13;;
12248;SDS011;6187;50.778;6.142;2023-11-21T02:34:30;9.67;;;6.23;;
12248;SDS011;6187;50.778;6.142;2023-11-21T02:36:59;12.87;;;6.73;;
12248;SDS011;6187;50.778;6.142;2023-11-21T02:39:28;9.23;;;6.70;;
12248;SDS011;6187;50.778;6.142;2023-11-21T02:41:58;8.30;;;5.80;;
12248;SDS011;6187;50.778;6.142;2023-11-21T02:44:26;10.33;;;6.57;;
12248;SDS011;6187;50.778;6.142;2023-11-21T02:46:55;10.13;;;6.00;;
12248;SDS011;6187;50.778;6.142;2023-11-21T02:49:24;8.63;;;6.03;;
12248;SDS011;6187;50.778;6.142;2023-11-21T02:51:54;9.63;;;6.80;;
12248;SDS011;6187;50.778;6.142;2023-11-21T02:54:23;10.63;;;6.27;;
12248;SDS011;6187;50.778;6.142;2023-11-21T02:56:53;8.63;;;6.00;;
12248;SDS011;6187;50.778;6.142;2023-11-21T02:59:22;9.57;;;5.50;;
12248;SDS011;6187;50.778;6.142;2023-11-21T03:01:51;12.13;;;6.93;;
12248;SDS011;6187;50.778;6.142;2023-11-21T03:04:19;9.03;;;5.73;;
12248;SDS011;6187;50.778;6.142;2023-11-21T03:06:48;11.33;;;5.90;;
12248;SDS011;6187;50.778;6.142;2023-11-21T03:09:16;12.37;;;6.70;;
12248;SDS011;6187;50.778;6.142;2023-11-21T03:11:45;10.37;;;6.83;;
12248;SDS011;6187;50.778;6.142;2023-11-21T03:14:14;9.23;;;6.00;;
12248;SDS011;6187;50.778;6.142;2023-11-21T03:16:43;11.30;;;6.90;;
12248;SDS011;6187;50.778;6.142;2023-11-21T03:19:12;8.27;;;5.83;;
12248;SDS011;6187;50.778;6.142;2023-11-21T03:21:41;13.57;;;6.30;;
12248;SDS011;6187;50.778;6.142;2023-11-21T03:24:10;11.33;;;6.40;;
12248;SDS011;6187;50.778;6.142;2023-11-21T03:26:38;8.20;;;5.90;;
12248;SDS011;6187;50.778;6.142;2023-11-21T03:29:07;9.83;;;5.77;;
12248;SDS011;6187;50.778;6.142;2023-11-21T03:31:35;9.60;;;5.87;;
12248;SDS011;6187;50.778;6.142;2023-11-21T03:34:05;8.80;;;5.90;;
12248;SDS011;6187;50.778;6.142;2023-11-21T03:36:34;8.43;;;5.53;;
12248;SDS011;6187;50.778;6.142;2023-11-21T03:39:03;9.53;;;6.53;;
12248;SDS011;6187;50.778;6.142;2023-11-21T03:41:31;12.33;;;6.07;;
12248;SDS011;6187;50.778;6.142;2023-11-21T03:44:00;10.17;;;6.10;;
12248;SDS011;6187;50.778;6.142;2023-11-21T03:46:29;11.73;;;6.30;;
12248;SDS011;6187;50.778;6.142;2023-11-21T03:48:58;8.70;;;5.30;;
12248;SDS011;6187;50.778;6.142;2023-11-21T03:51:28;11.37;;;6.20;;
12248;SDS011;6187;50.778;6.142;2023-11-21T03:53:56;9.00;;;5.63;;
12248;SDS011;6187;50.778;6.142;2023-11-21T03:56:25;9.20;;;5.70;;
12248;SDS011;6187;50.778;6.142;2023-11-21T03:58:53;9.63;;;5.77;;
12248;SDS011;6187;50.778;6.142;2023-11-21T04:01:22;8.30;;;5.23;;
12248;SDS011;6187;50.778;6.142;2023-11-21T04:03:51;10.00;;;5.80;;
12248;SDS011;6187;50.778;6.142;2023-11-21T04:06:20;11.47;;;5.97;;
12248;SDS011;6187;50.778;6.142;2023-11-21T04:08:49;8.83;;;5.57;;
12248;SDS011;6187;50.778;6.142;2023-11-21T04:11:18;7.70;;;5.30;;
12248;SDS011;6187;50.778;6.142;2023-11-21T04:13:46;8.43;;;5.80;;
12248;SDS011;6187;50.778;6.142;2023-11-21T04:16:14;8.27;;;4.87;;
12248;SDS011;6187;50.778;6.142;2023-11-21T04:18:43;10.20;;;5.67;;
12248;SDS011;6187;50.778;6.142;2023-11-21T04:21:12;9.20;;;5.17;;
12248;SDS011;6187;50.778;6.142;2023-11-21T04:23:40;6.57;;;4.27;;
12248;SDS011;6187;50.778;6.142;2023-11-21T04:26:10;7.00;;;4.27;;
12248;SDS011;6187;50.778;6.142;2023-11-21T04:28:39;8.03;;;5.03;;
12248;SDS011;6187;50.778;6.142;2023-11-21T04:31:07;11.57;;;4.33;;
12248;SDS011;6187;50.778;6.142;2023-11-21T04:33:36;6.80;;;4.63;;
12248;SDS011;6187;50.778;6.142;2023-11-21T04:36:05;6.87;;;4.67;;
12248;SDS011;6187;50.778;6.142;2023-11-21T04:38:33;8.03;;;4.90;;
12248;SDS011;6187;50.778;6.142;2023-11-21T04:41:02;7.00;;;4.07;;
12248;SDS011;6187;50.778;6.142;2023-11-21T04:43:32;6.13;;;4.20;;
12248;SDS011;6187;50.778;6.142;2023-11-21T04:46:00;8.27;;;4.07;;
12248;SDS011;6187;50.778;6.142;2023-11-21T04:48:29;6.77;;;4.07;;
12248;SDS011;6187;50.778;6.142;2023-11-21T04:50:58;6.30;;;4.17;;
12248;SDS011;6187;50.778;6.142;2023-11-21T04:53:26;8.33;;;4.60;;
12248;SDS011;6187;50.778;6.142;2023-11-21T04:55:55;7.20;;;4.47;;
12248;SDS011;6187;50.778;6.142;2023-11-21T04:58:24;7.23;;;4.70;;
12248;SDS011;6187;50.778;6.142;2023-11-21T05:00:53;7.13;;;5.13;;
12248;SDS011;6187;50.778;6.142;2023-11-21T05:03:22;8.13;;;5.50;;
12248;SDS011;6187;50.778;6.142;2023-11-21T05:05:51;10.70;;;5.37;;
12248;SDS011;6187;50.778;6.142;2023-11-21T05:08:20;8.90;;;5.60;;
12248;SDS011;6187;50.778;6.142;2023-11-21T05:10:49;7.27;;;5.23;;
12248;SDS011;6187;50.778;6.142;2023-11-21T05:13:18;8.13;;;4.93;;
12248;SDS011;6187;50.778;6.142;2023-11-21T05:15:46;8.70;;;5.17;;
12248;SDS011;6187;50.778;6.142;2023-11-21T05:18:16;9.13;;;5.00;;
12248;SDS011;6187;50.778;6.142;2023-11-21T05:20:46;8.30;;;5.13;;
12248;SDS011;6187;50.778;6.142;2023-11-21T05:23:15;11.07;;;5.63;;
12248;SDS011;6187;50.778;6.142;2023-11-21T05:25:43;10.40;;;5.57;;
12248;SDS011;6187;50.778;6.142;2023-11-21T05:28:12;8.40;;;5.23;;
12248;SDS011;6187;50.778;6.142;2023-11-21T05:30:41;9.83;;;5.87;;
12248;SDS011;6187;50.778;6.142;2023-11-21T05:33:10;9.97;;;6.40;;
12248;SDS011;6187;50.778;6.142;2023-11-21T05:35:40;8.40;;;5.77;;
12248;SDS011;6187;50.778;6.142;2023-11-21T05:38:09;12.03;;;6.30;;
12248;SDS011;6187;50.778;6.142;2023-11-21T05:40:38;8.90;;;5.90;;
12248;SDS011;6187;50.778;6.142;2023-11-21T05:43:06;9.77;;;5.53;;
12248;SDS011;6187;50.778;6.142;2023-11-21T05:45:35;9.07;;;5.70;;
12248;SDS011;6187;50.778;6.142;2023-11-21T05:48:03;10.63;;;6.07;;
12248;SDS011;6187;50.778;6.142;2023-11-21T05:50:32;11.93;;;5.87;;
12248;SDS011;6187;50.778;6.142;2023-11-21T05:53:02;8.43;;;5.50;;
12248;SDS011;6187;50.778;6.142;2023-11-21T05:55:31;10.03;;;6.13;;
12248;SDS011;6187;50.778;6.142;2023-11-21T05:58:00;10.87;;;6.03;;
12248;SDS011;6187;50.778;6.142;2023-11-21T06:00:28;10.17;;;6.03;;
12248;SDS011;6187;50.778;6.142;2023-11-21T06:02:58;11.50;;;6.00;;
12248;SDS011;6187;50.778;6.142;2023-11-21T06:05:27;12.90;;;7.20;;
12248;SDS011;6187;50.778;6.142;2023-11-21T06:07:58;11.73;;;6.87;;
12248;SDS011;6187;50.778;6.142;2023-11-21T06:10:29;12.53;;;6.87;;
12248;SDS011;6187;50.778;6.142;2023-11-21T06:12:57;11.67;;;6.50;;
12248;SDS011;6187;50.778;6.142;2023-11-21T06:15:30;10.63;;;6.50;;
12248;SDS011;6187;50.778;6.142;2023-11-21T06:17:58;10.43;;;6.67;;
12248;SDS011;6187;50.778;6.142;2023-11-21T06:20:27;11.47;;;6.80;;
12248;SDS011;6187;50.778;6.142;2023-11-21T06:22:55;13.47;;;6.43;;
12248;SDS011;6187;50.778;6.142;2023-11-21T06:25:24;11.10;;;6.80;;
12248;SDS011;6187;50.778;6.142;2023-11-21T06:27:55;12.77;;;6.57;;
12248;SDS011;6187;50.778;6.142;2023-11-21T06:30:24;11.03;;;6.27;;
12248;SDS011;6187;50.778;6.142;2023-11-21T06:32:52;10.73;;;6.77;;
12248;SDS011;6187;50.778;6.142;2023-11-21T06:35:21;11.10;;;6.37;;
12248;SDS011;6187;50.778;6.142;2023-11-21T06:37:50;14.20;;;7.20;;
12248;SDS011;6187;50.778;6.142;2023-11-21T06:40:19;13.33;;;7.33;;
12248;SDS011;6187;50.778;6.142;2023-11-21T06:42:48;10.47;;;5.87;;
12248;SDS011;6187;50.778;6.142;2023-11-21T06:45:19;15.83;;;7.27;;
12248;SDS011;6187;50.778;6.142;2023-11-21T06:47:48;11.73;;;6.77;;
12248;SDS011;6187;50.778;6.142;2023-11-21T06:50:17;12.03;;;6.83;;
12248;SDS011;6187;50.778;6.142;2023-11-21T06:52:45;10.83;;;6.80;;
12248;SDS011;6187;50.778;6.142;2023-11-21T06:55:15;14.00;;;6.87;;
12248;SDS011;6187;50.778;6.142;2023-11-21T06:57:44;11.97;;;6.70;;
12248;SDS011;6187;50.778;6.142;2023-11-21T07:00:14;11.90;;;6.73;;
12248;SDS011;6187;50.778;6.142;2023-11-21T07:02:45;14.90;;;7.50;;
12248;SDS011;6187;50.778;6.142;2023-11-21T07:05:14;14.23;;;7.37;;
12248;SDS011;6187;50.778;6.142;2023-11-21T07:07:47;11.87;;;6.77;;
12248;SDS011;6187;50.778;6.142;2023-11-21T07:10:16;13.23;;;6.53;;
12248;SDS011;6187;50.778;6.142;2023-11-21T07:12:44;13.07;;;7.13;;
12248;SDS011;6187;50.778;6.142;2023-11-21T07:15:13;16.20;;;6.93;;
12248;SDS011;6187;50.778;6.142;2023-11-21T07:17:42;12.27;;;7.43;;
12248;SDS011;6187;50.778;6.142;2023-11-21T07:20:12;14.67;;;7.20;;
12248;SDS011;6187;50.778;6.142;2023-11-21T07:22:43;15.50;;;8.00;;
12248;SDS011;6187;50.778;6.142;2023-11-21T07:25:12;15.17;;;7.87;;
12248;SDS011;6187;50.778;6.142;2023-11-21T07:27:40;14.70;;;8.23;;
12248;SDS011;6187;50.778;6.142;2023-11-21T07:30:09;18.13;;;7.97;;
12248;SDS011;6187;50.778;6.142;2023-11-21T07:32:39;18.87;;;7.53;;
12248;SDS011;6187;50.778;6.142;2023-11-21T07:35:08;15.83;;;7.60;;
12248;SDS011;6187;50.778;6.142;2023-11-21T07:37:38;16.00;;;8.73;;
12248;SDS011;6187;50.778;6.142;2023-11-21T07:40:07;12.37;;;6.77;;
12248;SDS011;6187;50.778;6.142;2023-11-21T07:42:38;15.40;;;7.50;;
12248;SDS011;6187;50.778;6.142;2023-11-21T07:45:06;12.20;;;7.03;;
12248;SDS011;6187;50.778;6.142;2023-11-21T07:47:35;12.90;;;8.03;;
12248;SDS011;6187;50.778;6.142;2023-11-21T07:50:06;14.30;;;7.83;;
12248;SDS011;6187;50.778;6.142;2023-11-21T07:52:35;14.03;;;7.37;;
12248;SDS011;6187;50.778;6.142;2023-11-21T07:55:05;13.93;;;8.10;;
12248;SDS011;6187;50.778;6.142;2023-11-21T07:57:35;16.50;;;8.40;;
12248;SDS011;6187;50.778;6.142;2023-11-21T08:00:04;17.03;;;8.73;;
12248;SDS011;6187;50.778;6.142;2023-11-21T08:02:35;16.53;;;7.97;;
12248;SDS011;6187;50.778;6.142;2023-11-21T08:05:04;16.60;;;8.20;;
12248;SDS011;6187;50.778;6.142;2023-11-21T08:07:36;18.57;;;8.50;;
12248;SDS011;6187;50.778;6.142;2023-11-21T08:10:07;20.83;;;9.37;;
12248;SDS011;6187;50.778;6.142;2023-11-21T08:12:37;17.93;;;8.17;;
12248;SDS011;6187;50.778;6.142;2023-11-21T08:15:06;19.23;;;9.23;;
12248;SDS011;6187;50.778;6.142;2023-11-21T08:17:35;15.17;;;7.80;;
12248;SDS011;6187;50.778;6.142;2023-11-21T08:20:04;17.03;;;8.20;;
12248;SDS011;6187;50.778;6.142;2023-11-21T08:22:35;18.77;;;9.03;;
12248;SDS011;6187;50.778;6.142;2023-11-21T08:25:04;20.40;;;8.30;;
12248;SDS011;6187;50.778;6.142;2023-11-21T08:27:35;21.20;;;9.23;;
12248;SDS011;6187;50.778;6.142;2023-11-21T08:30:04;18.47;;;8.20;;
12248;SDS011;6187;50.778;6.142;2023-11-21T08:32:33;19.40;;;8.53;;
12248;SDS011;6187;50.778;6.142;2023-11-21T08:35:02;18.67;;;8.17;;
12248;SDS011;6187;50.778;6.142;2023-11-21T08:37:32;20.93;;;9.43;;
12248;SDS011;6187;50.778;6.142;2023-11-21T08:40:04;18.63;;;7.93;;
12248;SDS011;6187;50.778;6.142;2023-11-21T08:42:37;23.07;;;9.30;;
12248;SDS011;6187;50.778;6.142;2023-11-21T08:45:06;21.20;;;8.27;;
12248;SDS011;6187;50.778;6.142;2023-11-21T08:47:35;17.57;;;8.00;;
12248;SDS011;6187;50.778;6.142;2023-11-21T08:50:04;16.57;;;7.83;;
12248;SDS011;6187;50.778;6.142;2023-11-21T08:52:34;20.10;;;7.70;;
12248;SDS011;6187;50.778;6.142;2023-11-21T08:55:04;19.57;;;8.93;;
12248;SDS011;6187;50.778;6.142;2023-11-21T08:57:34;16.80;;;8.10;;
12248;SDS011;6187;50.778;6.142;2023-11-21T09:00:05;20.67;;;8.87;;
12248;SDS011;6187;50.778;6.142;2023-11-21T09:02:38;23.13;;;8.93;;
12248;SDS011;6187;50.778;6.142;2023-11-21T09:05:08;21.23;;;8.60;;
12248;SDS011;6187;50.778;6.142;2023-11-21T09:07:38;17.87;;;8.00;;
12248;SDS011;6187;50.778;6.142;2023-11-21T09:10:07;19.40;;;8.23;;
12248;SDS011;6187;50.778;6.142;2023-11-21T09:12:36;22.70;;;8.43;;
12248;SDS011;6187;50.778;6.142;2023-11-21T09:15:07;20.60;;;8.33;;
12248;SDS011;6187;50.778;6.142;2023-11-21T09:17:38;21.23;;;8.70;;
12248;SDS011;6187;50.778;6.142;2023-11-21T09:20:07;18.50;;;7.07;;
12248;SDS011;6187;50.778;6.142;2023-11-21T09:22:37;17.20;;;6.93;;
12248;SDS011;6187;50.778;6.142;2023-11-21T09:25:06;21.00;;;7.90;;
12248;SDS011;6187;50.778;6.142;2023-11-21T09:27:35;19.60;;;8.20;;
12248;SDS011;6187;50.778;6.142;2023-11-21T09:30:04;17.93;;;7.97;;
12248;SDS011;6187;50.778;6.142;2023-11-21T09:32:37;18.47;;;8.30;;
12248;SDS011;6187;50.778;6.142;2023-11-21T09:35:07;21.07;;;7.97;;
12248;SDS011;6187;50.778;6.142;2023-11-21T09:37:35;21.07;;;8.77;;
12248;SDS011;6187;50.778;6.142;2023-11-21T09:40:06;19.33;;;8.57;;
12248;SDS011;6187;50.778;6.142;2023-11-21T09:42:40;23.47;;;8.90;;
12248;SDS011;6187;50.778;6.142;2023-11-21T09:45:11;23.53;;;9.07;;
12248;SDS011;6187;50.778;6.142;2023-11-21T09:47:45;20.67;;;9.30;;
12248;SDS011;6187;50.778;6.142;2023-11-21T09:50:15;25.53;;;9.33;;
12248;SDS011;6187;50.778;6.142;2023-11-21T09:52:47;24.17;;;8.63;;
12248;SDS011;6187;50.778;6.142;2023-11-21T09:55:17;18.97;;;7.83;;
12248;SDS011;6187;50.778;6.142;2023-11-21T09:57:47;18.73;;;7.83;;
12248;SDS011;6187;50.778;6.142;2023-11-21T10:00:17;22.50;;;9.53;;
12248;SDS011;6187;50.778;6.142;2023-11-21T10:02:51;15.63;;;8.20;;
12248;SDS011;6187;50.778;6.142;2023-11-21T10:05:20;19.20;;;7.77;;
12248;SDS011;6187;50.778;6.142;2023-11-21T10:07:54;17.97;;;8.00;;
12248;SDS011;6187;50.778;6.142;2023-11-21T10:10:25;15.27;;;7.07;;
12248;SDS011;6187;50.778;6.142;2023-11-21T10:12:56;20.83;;;9.13;;
12248;SDS011;6187;50.778;6.142;2023-11-21T10:15:25;15.87;;;7.07;;
12248;SDS011;6187;50.778;6.142;2023-11-21T10:17:55;14.80;;;7.07;;
12248;SDS011;6187;50.778;6.142;2023-11-21T10:20:23;16.80;;;7.17;;
12248;SDS011;6187;50.778;6.142;2023-11-21T10:22:52;20.07;;;7.73;;
12248;SDS011;6187;50.778;6.142;2023-11-21T10:25:21;13.97;;;7.03;;
12248;SDS011;6187;50.778;6.142;2023-11-21T10:27:50;15.47;;;6.67;;
12248;SDS011;6187;50.778;6.142;2023-11-21T10:30:24;16.63;;;7.23;;
12248;SDS011;6187;50.778;6.142;2023-11-21T10:32:59;15.47;;;6.93;;
12248;SDS011;6187;50.778;6.142;2023-11-21T10:35:38;16.43;;;7.40;;
12248;SDS011;6187;50.778;6.142;2023-11-21T10:38:07;15.10;;;6.23;;
12248;SDS011;6187;50.778;6.142;2023-11-21T10:40:37;15.73;;;6.63;;
12248;SDS011;6187;50.778;6.142;2023-11-21T10:43:09;13.43;;;6.77;;
12248;SDS011;6187;50.778;6.142;2023-11-21T10:45:38;12.20;;;5.93;;
12248;SDS011;6187;50.778;6.142;2023-11-21T10:48:08;12.73;;;5.53;;
12248;SDS011;6187;50.778;6.142;2023-11-21T10:50:37;9.63;;;5.70;;
12248;SDS011;6187;50.778;6.142;2023-11-21T10:53:06;10.30;;;5.37;;
12248;SDS011;6187;50.778;6.142;2023-11-21T10:55:35;11.33;;;5.70;;
12248;SDS011;6187;50.778;6.142;2023-11-21T10:58:03;11.60;;;5.40;;
12248;SDS011;6187;50.778;6.142;2023-11-21T11:00:33;11.30;;;5.37;;
12248;SDS011;6187;50.778;6.142;2023-11-21T11:03:01;12.53;;;6.63;;
12248;SDS011;6187;50.778;6.142;2023-11-21T11:05:32;12.17;;;6.07;;
12248;SDS011;6187;50.778;6.142;2023-11-21T11:08:02;10.23;;;6.00;;
12248;SDS011;6187;50.778;6.142;2023-11-21T11:10:32;10.70;;;5.80;;
12248;SDS011;6187;50.778;6.142;2023-11-21T11:13:01;11.90;;;6.13;;
12248;SDS011;6187;50.778;6.142;2023-11-21T11:15:30;11.53;;;5.97;;
12248;SDS011;6187;50.778;6.142;2023-11-21T11:17:59;10.20;;;5.47;;
12248;SDS011;6187;50.778;6.142;2023-11-21T11:20:30;9.10;;;5.03;;
12248;SDS011;6187;50.778;6.142;2023-11-21T11:23:08;14.53;;;5.87;;
12248;SDS011;6187;50.778;6.142;2023-11-21T11:25:46;9.93;;;5.03;;
12248;SDS011;6187;50.778;6.142;2023-11-21T11:28:19;11.10;;;5.57;;
12248;SDS011;6187;50.778;6.142;2023-11-21T11:30:53;11.53;;;5.53;;
12248;SDS011;6187;50.778;6.142;2023-11-21T11:33:28;8.97;;;5.60;;
12248;SDS011;6187;50.778;6.142;2023-11-21T11:36:04;9.73;;;4.83;;
12248;SDS011;6187;50.778;6.142;2023-11-21T11:38:36;11.23;;;5.13;;
12248;SDS011;6187;50.778;6.142;2023-11-21T11:41:06;11.60;;;6.10;;
12248;SDS011;6187;50.778;6.142;2023-11-21T11:43:36;10.73;;;6.17;;
12248;SDS011;6187;50.778;6.142;2023-11-21T11:46:11;9.00;;;5.00;;
12248;SDS011;6187;50.778;6.142;2023-11-21T11:48:41;11.27;;;5.43;;
12248;SDS011;6187;50.778;6.142;2023-11-21T11:51:12;12.33;;;5.90;;
12248;SDS011;6187;50.778;6.142;2023-11-21T11:53:45;11.23;;;4.83;;
12248;SDS011;6187;50.778;6.142;2023-11-21T11:56:24;8.47;;;4.77;;
12248;SDS011;6187;50.778;6.142;2023-11-21T11:58:54;7.83;;;4.43;;
12248;SDS011;6187;50.778;6.142;2023-11-21T12:01:23;7.33;;;3.73;;
12248;SDS011;6187;50.778;6.142;2023-11-21T12:07:02;8.40;;;4.33;;
12248;SDS011;6187;50.778;6.142;2023-11-21T12:09:32;9.43;;;4.27;;
12248;SDS011;6187;50.778;6.142;2023-11-21T12:12:01;8.60;;;4.00;;
12248;SDS011;6187;50.778;6.142;2023-11-21T12:14:30;7.60;;;3.90;;
12248;SDS011;6187;50.778;6.142;2023-11-21T12:16:59;7.73;;;3.97;;
12248;SDS011;6187;50.778;6.142;2023-11-21T12:19:29;7.17;;;3.80;;
12248;SDS011;6187;50.778;6.142;2023-11-21T12:21:57;7.77;;;4.60;;
12248;SDS011;6187;50.778;6.142;2023-11-21T12:24:27;6.77;;;4.00;;
12248;SDS011;6187;50.778;6.142;2023-11-21T12:26:58;6.83;;;3.60;;
12248;SDS011;6187;50.778;6.142;2023-11-21T12:29:26;9.23;;;3.50;;
12248;SDS011;6187;50.778;6.142;2023-11-21T12:31:56;8.07;;;4.13;;
12248;SDS011;6187;50.778;6.142;2023-11-21T12:34:25;8.13;;;4.00;;
12248;SDS011;6187;50.778;6.142;2023-11-21T12:36:53;6.67;;;4.20;;
12248;SDS011;6187;50.778;6.142;2023-11-21T12:39:23;7.10;;;3.90;;
12248;SDS011;6187;50.778;6.142;2023-11-21T12:41:51;9.93;;;4.20;;
12248;SDS011;6187;50.778;6.142;2023-11-21T12:44:22;9.23;;;4.27;;
12248;SDS011;6187;50.778;6.142;2023-11-21T12:46:51;6.90;;;4.40;;
12248;SDS011;6187;50.778;6.142;2023-11-21T12:49:19;8.83;;;4.70;;
12248;SDS011;6187;50.778;6.142;2023-11-21T12:51:48;8.70;;;4.23;;
12248;SDS011;6187;50.778;6.142;2023-11-21T12:54:17;10.50;;;5.03;;
12248;SDS011;6187;50.778;6.142;2023-11-21T12:56:46;10.10;;;4.43;;
12248;SDS011;6187;50.778;6.142;2023-11-21T12:59:15;10.83;;;5.37;;
12248;SDS011;6187;50.778;6.142;2023-11-21T13:01:46;11.40;;;5.57;;
12248;SDS011;6187;50.778;6.142;2023-11-21T13:04:18;8.83;;;5.13;;
12248;SDS011;6187;50.778;6.142;2023-11-21T13:06:46;8.47;;;4.60;;
12248;SDS011;6187;50.778;6.142;2023-11-21T13:09:15;5.00;;;3.60;;
12248;SDS011;6187;50.778;6.142;2023-11-21T13:11:48;7.93;;;4.40;;
12248;SDS011;6187;50.778;6.142;2023-11-21T13:14:16;8.07;;;3.73;;
12248;SDS011;6187;50.778;6.142;2023-11-21T13:16:46;6.60;;;3.60;;
12248;SDS011;6187;50.778;6.142;2023-11-21T13:19:15;5.20;;;3.67;;
12248;SDS011;6187;50.778;6.142;2023-11-21T13:21:44;7.90;;;3.83;;
12248;SDS011;6187;50.778;6.142;2023-11-21T13:24:12;8.33;;;3.50;;
12248;SDS011;6187;50.778;6.142;2023-11-21T13:26:41;8.30;;;3.83;;
12248;SDS011;6187;50.778;6.142;2023-11-21T13:29:12;7.97;;;3.43;;
12248;SDS011;6187;50.778;6.142;2023-11-21T13:31:40;9.87;;;4.17;;
12248;SDS011;6187;50.778;6.142;2023-11-21T13:34:10;6.70;;;3.60;;
12248;SDS011;6187;50.778;6.142;2023-11-21T13:36:46;5.27;;;3.33;;
12248;SDS011;6187;50.778;6.142;2023-11-21T13:39:15;7.83;;;3.57;;
12248;SDS011;6187;50.778;6.142;2023-11-21T13:41:45;6.70;;;3.63;;
12248;SDS011;6187;50.778;6.142;2023-11-21T13:44:21;8.20;;;4.37;;
12248;SDS011;6187;50.778;6.142;2023-11-21T13:46:55;7.63;;;4.63;;
12248;SDS011;6187;50.778;6.142;2023-11-21T13:49:27;8.97;;;4.30;;
12248;SDS011;6187;50.778;6.142;2023-11-21T13:51:58;7.50;;;4.33;;
12248;SDS011;6187;50.778;6.142;2023-11-21T13:54:28;6.60;;;3.90;;
12248;SDS011;6187;50.778;6.142;2023-11-21T13:56:57;6.47;;;4.30;;
12248;SDS011;6187;50.778;6.142;2023-11-21T13:59:27;8.00;;;3.57;;
12248;SDS011;6187;50.778;6.142;2023-11-21T14:01:57;8.33;;;4.70;;
12248;SDS011;6187;50.778;6.142;2023-11-21T14:04:28;9.73;;;4.50;;
12248;SDS011;6187;50.778;6.142;2023-11-21T14:07:17;7.17;;;3.90;;
12248;SDS011;6187;50.778;6.142;2023-11-21T14:09:57;5.70;;;3.90;;
12248;SDS011;6187;50.778;6.142;2023-11-21T14:12:26;7.10;;;4.23;;
12248;SDS011;6187;50.778;6.142;2023-11-21T14:14:55;8.47;;;4.97;;
12248;SDS011;6187;50.778;6.142;2023-11-21T14:17:24;10.33;;;4.90;;
12248;SDS011;6187;50.778;6.142;2023-11-21T14:19:55;8.10;;;4.73;;
12248;SDS011;6187;50.778;6.142;2023-11-21T14:22:23;5.87;;;4.30;;
12248;SDS011;6187;50.778;6.142;2023-11-21T14:24:53;8.80;;;4.33;;
12248;SDS011;6187;50.778;6.142;2023-11-21T14:27:25;11.10;;;6.00;;
12248;SDS011;6187;50.778;6.142;2023-11-21T14:29:53;7.87;;;4.50;;
12248;SDS011;6187;50.778;6.142;2023-11-21T14:32:23;7.60;;;4.37;;
12248;SDS011;6187;50.778;6.142;2023-11-21T14:34:52;8.47;;;4.70;;
12248;SDS011;6187;50.778;6.142;2023-11-21T14:37:22;12.97;;;4.80;;
12248;SDS011;6187;50.778;6.142;2023-11-21T14:39:52;8.27;;;4.40;;
12248;SDS011;6187;50.778;6.142;2023-11-21T14:42:21;8.63;;;4.60;;
12248;SDS011;6187;50.778;6.142;2023-11-21T14:44:52;7.80;;;4.00;;
12248;SDS011;6187;50.778;6.142;2023-11-21T14:47:23;11.57;;;5.50;;
12248;SDS011;6187;50.778;6.142;2023-11-21T14:49:54;7.57;;;4.27;;
12248;SDS011;6187;50.778;6.142;2023-11-21T14:52:27;7.07;;;4.23;;
12248;SDS011;6187;50.778;6.142;2023-11-21T14:55:01;6.87;;;4.70;;
12248;SDS011;6187;50.778;6.142;2023-11-21T14:57:58;6.50;;;4.50;;
12248;SDS011;6187;50.778;6.142;2023-11-21T15:00:30;10.77;;;5.20;;
12248;SDS011;6187;50.778;6.142;2023-11-21T15:03:11;7.90;;;4.70;;
12248;SDS011;6187;50.778;6.142;2023-11-21T15:05:57;7.33;;;4.30;;
12248;SDS011;6187;50.778;6.142;2023-11-21T15:08:37;7.70;;;4.07;;
12248;SDS011;6187;50.778;6.142;2023-11-21T15:11:09;8.47;;;4.47;;